createdAt,value
2023-05-06T00:00:22.668Z,10.97
2023-05-06T00:02:49.911Z,14.18
2023-05-06T00:05:18.972Z,12.73
2023-05-06T00:07:46.404Z,10.00
2023-05-06T00:10:13.627Z,13.90
2023-05-06T00:12:41.012Z,12.43
2023-05-06T00:15:08.896Z,14.02
2023-05-06T00:17:36.377Z,12.52
2023-05-06T00:20:04.055Z,12.27
2023-05-06T00:22:31.221Z,13.65
2023-05-06T00:24:58.326Z,12.10
2023-05-06T00:27:25.472Z,10.48
2023-05-06T00:29:52.583Z,12.23
2023-05-06T00:32:19.684Z,12.35
2023-05-06T00:34:46.991Z,10.93
2023-05-06T00:37:14.105Z,13.33
2023-05-06T00:39:41.209Z,9.48
2023-05-06T00:42:08.418Z,12.40
2023-05-06T00:44:35.698Z,11.65
2023-05-06T00:47:02.855Z,12.25
2023-05-06T00:49:30.761Z,10.33
2023-05-06T00:51:59.196Z,11.75
2023-05-06T00:54:26.928Z,11.32
2023-05-06T00:56:54.705Z,13.00
2023-05-06T00:59:22.907Z,12.90
2023-05-06T01:01:50.065Z,13.20
2023-05-06T01:04:17.404Z,10.15
2023-05-06T01:06:45.991Z,10.57
2023-05-06T01:09:32.519Z,12.18
2023-05-06T01:12:22.832Z,11.45
2023-05-06T01:14:58.331Z,9.20
2023-05-06T01:17:28.431Z,10.30
2023-05-06T01:19:59.493Z,12.35
2023-05-06T01:22:27.172Z,12.27
2023-05-06T01:24:54.385Z,11.35
2023-05-06T01:27:21.790Z,11.77
2023-05-06T01:29:49.110Z,9.85
2023-05-06T01:32:32.130Z,11.80
2023-05-06T01:35:17.183Z,11.40
2023-05-06T01:38:07.532Z,11.13
2023-05-06T01:40:35.698Z,13.87
2023-05-06T01:43:05.871Z,11.60
2023-05-06T01:45:36.089Z,13.02
2023-05-06T01:48:04.290Z,12.13
2023-05-06T01:50:32.579Z,11.30
2023-05-06T01:53:01.650Z,10.93
2023-05-06T01:55:29.432Z,12.05
2023-05-06T01:57:56.814Z,10.15
2023-05-06T02:00:27.073Z,12.40
2023-05-06T02:02:54.418Z,13.18
2023-05-06T02:05:21.834Z,14.30
2023-05-06T02:07:49.049Z,9.40
2023-05-06T02:10:16.592Z,11.43
2023-05-06T02:12:43.856Z,10.07
2023-05-06T02:15:11.696Z,9.27
2023-05-06T02:17:39.124Z,10.43
2023-05-06T02:20:07.341Z,11.55
2023-05-06T02:25:02.159Z,9.70
2023-05-06T02:27:29.706Z,10.00
2023-05-06T02:29:56.856Z,9.03
2023-05-06T02:32:24.328Z,9.00
2023-05-06T02:34:53.174Z,9.60
2023-05-06T02:37:20.398Z,8.00
2023-05-06T02:39:47.765Z,9.88
2023-05-06T02:42:16.181Z,6.90
2023-05-06T02:44:43.563Z,9.60
2023-05-06T02:47:11.117Z,10.02
2023-05-06T02:49:38.481Z,7.72
2023-05-06T02:52:05.832Z,8.38
2023-05-06T02:54:33.124Z,7.57
2023-05-06T02:57:01.615Z,8.75
2023-05-06T02:59:28.807Z,6.68
2023-05-06T03:01:56.772Z,8.43
2023-05-06T03:04:24.058Z,8.90
2023-05-06T03:06:51.210Z,8.97
2023-05-06T03:09:18.377Z,9.82
2023-05-06T03:11:46.006Z,10.00
2023-05-06T03:14:13.232Z,9.68
2023-05-06T03:16:40.394Z,9.32
2023-05-06T03:19:07.524Z,9.17
2023-05-06T03:21:34.758Z,9.63
2023-05-06T03:24:01.942Z,9.98
2023-05-06T03:26:29.187Z,8.85
2023-05-06T03:28:56.352Z,9.32
2023-05-06T03:31:23.570Z,12.20
2023-05-06T03:33:50.804Z,9.82
2023-05-06T03:36:17.946Z,13.10
2023-05-06T03:38:45.076Z,12.10
2023-05-06T03:41:12.216Z,11.30
2023-05-06T03:43:39.364Z,11.37
2023-05-06T03:46:07.370Z,11.15
2023-05-06T03:48:34.660Z,12.30
2023-05-06T03:51:01.907Z,11.25
2023-05-06T03:53:29.171Z,11.85
2023-05-06T03:55:56.360Z,12.03
2023-05-06T03:58:23.647Z,14.60
2023-05-06T04:00:50.767Z,13.00
2023-05-06T04:03:18.332Z,12.88
2023-05-06T04:05:46.555Z,13.65
2023-05-06T04:08:13.615Z,15.50
2023-05-06T04:10:41.101Z,12.65
2023-05-06T04:13:08.390Z,13.50
2023-05-06T04:15:36.532Z,14.63
2023-05-06T04:18:04.674Z,17.20
2023-05-06T04:20:31.847Z,14.20
2023-05-06T04:22:58.966Z,13.70
2023-05-06T04:25:26.323Z,15.88
2023-05-06T04:27:53.449Z,16.55
2023-05-06T04:30:21.310Z,14.98
2023-05-06T04:32:48.468Z,14.80
2023-05-06T04:35:16.329Z,19.00
2023-05-06T04:37:44.396Z,14.98
2023-05-06T04:40:13.997Z,15.02
2023-05-06T04:42:41.189Z,15.48
2023-05-06T04:45:09.678Z,17.13
2023-05-06T04:47:37.059Z,15.85
2023-05-06T04:50:04.507Z,15.75
2023-05-06T04:52:32.180Z,19.42
2023-05-06T04:54:59.304Z,13.18
2023-05-06T04:57:26.805Z,17.33
2023-05-06T04:59:53.918Z,16.55
2023-05-06T05:02:21.092Z,16.95
2023-05-06T05:04:48.296Z,15.00
2023-05-06T05:07:15.466Z,15.38
2023-05-06T05:09:42.574Z,17.70
2023-05-06T05:12:09.951Z,14.57
2023-05-06T05:14:37.107Z,18.27
2023-05-06T05:17:04.799Z,16.17
2023-05-06T05:19:31.923Z,16.75
2023-05-06T05:21:59.043Z,15.87
2023-05-06T05:24:26.234Z,14.85
2023-05-06T05:26:53.425Z,14.40
2023-05-06T05:29:20.669Z,16.48
2023-05-06T05:31:47.836Z,15.27
2023-05-06T05:34:15.933Z,20.60
2023-05-06T05:36:43.157Z,16.30
2023-05-06T05:39:10.245Z,18.50
2023-05-06T05:41:37.598Z,16.92
2023-05-06T05:44:04.889Z,18.90
2023-05-06T05:46:32.061Z,14.83
2023-05-06T05:48:59.275Z,17.40
2023-05-06T05:51:26.543Z,14.07
2023-05-06T05:53:53.670Z,15.20
2023-05-06T05:56:20.946Z,15.27
2023-05-06T05:58:48.063Z,14.73
2023-05-06T06:01:15.220Z,19.27
2023-05-06T06:03:42.597Z,14.15
2023-05-06T06:06:09.952Z,16.42
2023-05-06T06:08:37.377Z,16.25
2023-05-06T06:11:05.845Z,16.07
2023-05-06T06:13:33.093Z,15.13
2023-05-06T06:16:00.874Z,15.75
2023-05-06T06:18:28.200Z,15.30
2023-05-06T06:20:55.379Z,15.63
2023-05-06T06:23:22.620Z,13.93
2023-05-06T06:25:49.817Z,14.55
2023-05-06T06:28:16.991Z,15.43
2023-05-06T06:30:44.194Z,14.27
2023-05-06T06:33:11.994Z,14.50
2023-05-06T06:35:39.087Z,13.10
2023-05-06T06:38:06.248Z,13.45
2023-05-06T06:40:33.531Z,12.18
2023-05-06T06:43:01.149Z,11.18
2023-05-06T06:45:28.269Z,9.85
2023-05-06T06:47:55.675Z,9.17
2023-05-06T06:50:22.795Z,10.05
2023-05-06T06:52:49.901Z,13.07
2023-05-06T06:55:16.982Z,11.63
2023-05-06T06:57:44.259Z,9.93
2023-05-06T07:00:11.862Z,8.97
2023-05-06T07:02:39.133Z,12.20
2023-05-06T07:05:06.522Z,10.32
2023-05-06T07:07:33.749Z,11.40
2023-05-06T07:10:00.963Z,11.57
2023-05-06T07:12:28.519Z,9.87
2023-05-06T07:14:55.633Z,10.85
2023-05-06T07:17:22.849Z,11.45
2023-05-06T07:19:50.045Z,10.43
2023-05-06T07:22:17.159Z,11.15
2023-05-06T07:24:44.251Z,11.83
2023-05-06T07:27:11.353Z,11.65
2023-05-06T07:29:38.600Z,10.88
2023-05-06T07:32:05.979Z,10.57
2023-05-06T07:34:34.457Z,10.25
2023-05-06T07:37:01.806Z,11.17
2023-05-06T07:39:29.117Z,11.50
2023-05-06T07:41:56.302Z,12.73
2023-05-06T07:44:23.431Z,12.68
2023-05-06T07:46:50.894Z,12.18
2023-05-06T07:49:18.161Z,11.67
2023-05-06T07:51:45.550Z,11.05
2023-05-06T07:54:12.830Z,11.60
2023-05-06T07:56:40.030Z,11.02
2023-05-06T07:59:08.347Z,11.60
2023-05-06T08:01:35.596Z,11.33
2023-05-06T08:04:02.770Z,12.02
2023-05-06T08:06:29.959Z,11.55
2023-05-06T08:08:57.084Z,12.75
2023-05-06T08:11:24.251Z,11.18
2023-05-06T08:13:51.397Z,12.30
2023-05-06T08:16:18.593Z,12.73
2023-05-06T08:18:45.786Z,11.70
2023-05-06T08:21:12.921Z,12.02
2023-05-06T08:23:40.281Z,11.85
2023-05-06T08:26:07.446Z,13.70
2023-05-06T08:28:34.819Z,14.13
2023-05-06T08:31:02.105Z,17.20
2023-05-06T08:33:30.760Z,18.33
2023-05-06T08:35:58.813Z,17.30
2023-05-06T08:38:26.429Z,19.17
2023-05-06T08:40:54.607Z,21.90
2023-05-06T08:43:22.490Z,18.02
2023-05-06T08:45:49.781Z,18.83
2023-05-06T08:48:17.180Z,18.35
2023-05-06T08:50:44.413Z,19.77
2023-05-06T08:53:13.620Z,17.58
2023-05-06T08:55:41.976Z,17.23
2023-05-06T08:58:11.499Z,17.23
2023-05-06T09:00:40.470Z,17.00
2023-05-06T09:03:07.765Z,16.93
2023-05-06T09:05:34.890Z,15.85
2023-05-06T09:08:02.208Z,16.20
2023-05-06T09:10:33.627Z,14.65
2023-05-06T09:13:00.818Z,13.35
2023-05-06T09:15:39.542Z,13.87
2023-05-06T09:18:06.750Z,15.00
2023-05-06T09:20:34.951Z,18.65
2023-05-06T09:23:03.044Z,19.50
2023-05-06T09:25:30.490Z,19.80
2023-05-06T09:28:04.734Z,20.10
2023-05-06T09:30:31.897Z,19.65
2023-05-06T09:32:59.520Z,19.40
2023-05-06T09:35:37.024Z,24.15
2023-05-06T09:38:05.911Z,22.02
2023-05-06T09:40:38.602Z,21.43
2023-05-06T09:43:06.115Z,20.73
2023-05-06T09:45:33.904Z,19.58
2023-05-06T09:48:01.443Z,20.73
2023-05-06T09:50:28.768Z,19.67
2023-05-06T09:52:56.310Z,19.60
2023-05-06T09:55:26.676Z,18.70
2023-05-06T09:57:54.849Z,18.77
2023-05-06T10:00:27.978Z,16.60
2023-05-06T10:02:55.937Z,16.10
2023-05-06T10:05:25.665Z,15.20
2023-05-06T10:07:53.566Z,15.10
2023-05-06T10:10:23.462Z,16.13
2023-05-06T10:12:52.211Z,15.70
2023-05-06T10:15:19.494Z,16.15
2023-05-06T10:17:48.951Z,14.23
2023-05-06T10:20:16.655Z,13.88
2023-05-06T10:22:53.537Z,13.18
2023-05-06T10:25:39.491Z,14.88
2023-05-06T10:28:14.555Z,13.48
2023-05-06T10:30:53.822Z,15.10
2023-05-06T10:33:23.161Z,12.90
2023-05-06T10:36:20.476Z,12.77
2023-05-06T10:38:54.831Z,15.38
2023-05-06T10:41:23.736Z,14.05
2023-05-06T10:43:56.917Z,11.27
2023-05-06T10:46:26.376Z,11.93
2023-05-06T10:49:10.922Z,14.25
2023-05-06T10:51:38.695Z,12.07
2023-05-06T10:54:07.207Z,11.13
2023-05-06T10:56:58.987Z,8.67
2023-05-06T10:59:28.597Z,14.43
2023-05-06T11:01:57.198Z,10.50
2023-05-06T11:04:24.512Z,9.07
2023-05-06T11:06:53.028Z,10.88
2023-05-06T11:09:24.947Z,9.73
2023-05-06T11:12:04.850Z,9.48
2023-05-06T11:14:36.672Z,11.82
2023-05-06T11:17:05.838Z,12.40
2023-05-06T11:19:37.415Z,10.75
2023-05-06T11:22:06.011Z,8.67
2023-05-06T11:24:42.342Z,10.27
2023-05-06T11:27:10.525Z,11.70
2023-05-06T11:29:37.677Z,11.00
2023-05-06T11:32:22.201Z,16.73
2023-05-06T11:34:49.324Z,10.97
2023-05-06T11:37:27.816Z,9.43
2023-05-06T11:39:55.524Z,12.65
2023-05-06T11:42:27.412Z,9.43
2023-05-06T11:44:55.536Z,9.65
2023-05-06T11:47:23.685Z,10.43
2023-05-06T11:49:53.130Z,8.98
2023-05-06T11:52:20.969Z,9.52
2023-05-06T11:54:49.641Z,9.30
2023-05-06T11:57:17.384Z,10.35
2023-05-06T11:59:44.475Z,8.20
2023-05-06T12:02:13.673Z,9.40
2023-05-06T12:04:42.803Z,9.25
2023-05-06T12:07:11.650Z,9.30
2023-05-06T12:09:41.978Z,7.65
2023-05-06T12:12:09.653Z,7.30
2023-05-06T12:14:37.381Z,9.27
2023-05-06T12:17:05.050Z,7.50
2023-05-06T12:19:32.628Z,5.28
2023-05-06T12:22:19.552Z,5.82
2023-05-06T12:24:47.458Z,8.90
2023-05-06T12:27:14.778Z,5.45
2023-05-06T12:29:52.553Z,7.72
2023-05-06T12:32:19.672Z,7.82
2023-05-06T12:34:46.748Z,7.80
2023-05-06T12:37:24.425Z,5.87
2023-05-06T12:39:51.534Z,6.10
2023-05-06T12:42:22.879Z,5.97
2023-05-06T12:44:50.783Z,7.32
2023-05-06T12:47:25.439Z,5.80
2023-05-06T12:50:00.999Z,8.00
2023-05-06T12:52:30.098Z,8.27
2023-05-06T12:54:57.874Z,7.28
2023-05-06T12:57:25.378Z,6.60
2023-05-06T12:59:53.821Z,6.82
2023-05-06T13:02:21.139Z,8.70
2023-05-06T13:04:49.334Z,8.60
2023-05-06T13:07:16.639Z,6.72
2023-05-06T13:09:44.615Z,9.30
2023-05-06T13:12:12.024Z,7.95
2023-05-06T13:14:40.381Z,7.37
2023-05-06T13:17:08.423Z,9.23
2023-05-06T13:19:35.938Z,10.38
2023-05-06T13:22:03.196Z,8.23
2023-05-06T13:24:32.130Z,8.73
2023-05-06T13:27:02.453Z,7.37
2023-05-06T13:29:29.842Z,7.93
2023-05-06T13:31:57.200Z,6.65
2023-05-06T13:34:24.987Z,9.88
2023-05-06T13:36:54.593Z,8.20
2023-05-06T13:39:21.846Z,7.13
2023-05-06T13:41:52.612Z,5.70
2023-05-06T13:44:20.494Z,7.25
2023-05-06T13:46:48.446Z,9.32
2023-05-06T13:49:15.724Z,6.15
2023-05-06T13:51:42.889Z,7.80
2023-05-06T13:54:10.272Z,7.18
2023-05-06T13:56:37.494Z,7.43
2023-05-06T13:59:04.662Z,6.47
2023-05-06T14:01:31.890Z,7.25
2023-05-06T14:04:00.891Z,7.33
2023-05-06T14:06:29.046Z,6.55
2023-05-06T14:08:56.189Z,5.93
2023-05-06T14:11:23.417Z,5.75
2023-05-06T14:13:50.596Z,6.25
2023-05-06T14:16:17.762Z,6.13
2023-05-06T14:18:44.971Z,6.28
2023-05-06T14:21:12.084Z,5.25
2023-05-06T14:23:39.285Z,5.55
2023-05-06T14:26:06.413Z,5.38
2023-05-06T14:28:33.523Z,4.37
2023-05-06T14:31:01.335Z,5.80
2023-05-06T14:33:28.404Z,12.18
2023-05-06T14:35:55.523Z,5.18
2023-05-06T14:38:22.613Z,4.35
2023-05-06T14:40:52.668Z,3.43
2023-05-06T14:43:19.746Z,3.53
2023-05-06T14:45:47.378Z,4.57
2023-05-06T14:48:14.596Z,4.80
2023-05-06T14:50:41.776Z,5.38
2023-05-06T14:53:09.562Z,5.73
2023-05-06T14:55:37.484Z,5.75
2023-05-06T14:58:04.622Z,5.15
2023-05-06T15:00:31.832Z,7.13
2023-05-06T15:02:59.323Z,6.80
2023-05-06T15:05:26.989Z,6.97
2023-05-06T15:07:54.174Z,7.53
2023-05-06T15:10:22.015Z,7.18
2023-05-06T15:12:49.448Z,5.55
2023-05-06T15:15:16.590Z,8.07
2023-05-06T15:17:43.721Z,9.87
2023-05-06T15:20:11.422Z,10.02
2023-05-06T15:22:39.735Z,8.15
2023-05-06T15:25:09.513Z,7.32
2023-05-06T15:27:39.368Z,8.13
2023-05-06T15:30:08.065Z,10.80
2023-05-06T15:32:35.273Z,6.60
2023-05-06T15:35:04.868Z,7.55
2023-05-06T15:37:33.261Z,8.07
2023-05-06T15:40:00.945Z,8.15
2023-05-06T15:42:28.092Z,6.60
2023-05-06T15:44:55.211Z,7.28
2023-05-06T15:47:22.281Z,7.28
2023-05-06T15:49:54.421Z,7.75
2023-05-06T15:52:22.973Z,8.50
2023-05-06T15:54:50.623Z,8.50
2023-05-06T15:57:17.876Z,7.07
2023-05-06T15:59:44.995Z,8.00
2023-05-06T16:02:26.824Z,9.15
2023-05-06T16:04:54.883Z,7.43
2023-05-06T16:07:22.168Z,8.93
2023-05-06T16:09:49.867Z,7.22
2023-05-06T16:12:16.970Z,8.75
2023-05-06T16:14:44.501Z,11.57
2023-05-06T16:17:11.587Z,9.50
2023-05-06T16:19:38.793Z,10.43
2023-05-06T16:22:06.197Z,9.45
2023-05-06T16:24:33.353Z,10.35
2023-05-06T16:27:01.069Z,10.40
2023-05-06T16:29:28.356Z,9.80
2023-05-06T16:31:55.724Z,12.00
2023-05-06T16:34:22.878Z,13.23
2023-05-06T16:36:50.636Z,13.45
2023-05-06T16:39:17.786Z,14.52
2023-05-06T16:41:46.533Z,14.00
2023-05-06T16:44:13.795Z,14.80
2023-05-06T16:46:41.344Z,13.80
2023-05-06T16:49:08.622Z,12.82
2023-05-06T16:51:36.196Z,13.98
2023-05-06T16:54:03.724Z,15.82
2023-05-06T16:56:43.921Z,16.63
2023-05-06T16:59:15.632Z,14.48
2023-05-06T17:01:42.671Z,15.05
2023-05-06T17:04:10.168Z,15.55
2023-05-06T17:06:37.277Z,14.45
2023-05-06T17:09:04.516Z,17.53
2023-05-06T17:11:31.648Z,13.70
2023-05-06T17:14:01.269Z,15.05
2023-05-06T17:16:28.465Z,15.18
2023-05-06T17:18:55.554Z,15.48
2023-05-06T17:21:23.651Z,17.20
2023-05-06T17:23:53.425Z,16.52
2023-05-06T17:26:21.010Z,17.70
2023-05-06T17:28:48.413Z,18.50
2023-05-06T17:31:16.131Z,21.42
2023-05-06T17:33:46.233Z,18.03
2023-05-06T17:36:14.037Z,18.48
2023-05-06T17:38:41.154Z,17.13
2023-05-06T17:41:08.442Z,18.48
2023-05-06T17:43:35.569Z,17.35
2023-05-06T17:46:03.305Z,20.10
2023-05-06T17:48:30.834Z,19.48
2023-05-06T17:51:04.894Z,19.42
2023-05-06T17:53:34.942Z,19.58
2023-05-06T17:56:02.054Z,17.65
2023-05-06T17:58:29.599Z,18.73
2023-05-06T18:00:57.434Z,24.33
2023-05-06T18:03:24.679Z,18.77
2023-05-06T18:05:51.883Z,21.00
2023-05-06T18:08:18.974Z,17.48
2023-05-06T18:10:46.316Z,20.37
2023-05-06T18:13:13.507Z,17.25
2023-05-06T18:15:40.646Z,19.50
2023-05-06T18:18:07.961Z,17.98
2023-05-06T18:20:35.032Z,19.15
2023-05-06T18:23:02.132Z,21.13
2023-05-06T18:25:29.253Z,20.20
2023-05-06T18:27:56.427Z,19.35
2023-05-06T18:30:23.613Z,18.73
2023-05-06T18:32:52.317Z,21.05
2023-05-06T18:35:20.548Z,18.93
2023-05-06T18:37:47.682Z,21.05
2023-05-06T18:40:14.966Z,21.05
2023-05-06T18:42:42.499Z,21.25
2023-05-06T18:45:10.148Z,22.30
2023-05-06T18:47:39.913Z,19.53
2023-05-06T18:50:08.322Z,19.77
2023-05-06T18:52:38.302Z,20.52
2023-05-06T18:55:05.873Z,20.10
2023-05-06T18:57:33.317Z,21.45
2023-05-06T19:00:00.654Z,19.90
2023-05-06T19:02:27.860Z,22.35
2023-05-06T19:04:56.344Z,22.63
2023-05-06T19:07:23.404Z,21.55
2023-05-06T19:09:50.641Z,19.35
2023-05-06T19:12:18.349Z,20.13
2023-05-06T19:14:45.477Z,21.58
2023-05-06T19:17:12.629Z,20.42
2023-05-06T19:19:40.646Z,21.42
2023-05-06T19:22:07.862Z,22.05
2023-05-06T19:24:34.945Z,21.17
2023-05-06T19:27:02.360Z,20.23
2023-05-06T19:29:29.442Z,19.48
2023-05-06T19:31:56.526Z,20.83
2023-05-06T19:34:23.581Z,21.25
2023-05-06T19:36:50.687Z,20.17
2023-05-06T19:39:17.783Z,19.60
2023-05-06T19:41:44.985Z,22.35
2023-05-06T19:44:12.067Z,23.70
2023-05-06T19:46:39.201Z,21.05
2023-05-06T19:49:06.405Z,20.73
2023-05-06T19:51:33.477Z,22.45
2023-05-06T19:54:00.580Z,20.15
2023-05-06T19:56:27.695Z,22.25
2023-05-06T19:58:54.760Z,21.20
2023-05-06T20:01:23.800Z,22.23
2023-05-06T20:03:51.193Z,19.90
2023-05-06T20:06:19.350Z,22.70
2023-05-06T20:08:46.426Z,18.48
2023-05-06T20:11:13.507Z,19.08
2023-05-06T20:13:40.642Z,23.10
2023-05-06T20:16:07.867Z,24.92
2023-05-06T20:18:35.484Z,23.05
2023-05-06T20:21:02.609Z,21.65
2023-05-06T20:23:30.740Z,22.38
2023-05-06T20:25:57.826Z,22.40
2023-05-06T20:28:24.895Z,18.73
2023-05-06T20:30:52.029Z,21.85
2023-05-06T20:33:19.103Z,18.42
2023-05-06T20:35:46.716Z,20.48
2023-05-06T20:38:16.926Z,22.73
2023-05-06T20:40:44.004Z,17.70
2023-05-06T20:43:13.675Z,19.80
2023-05-06T20:45:40.984Z,18.15
2023-05-06T20:48:08.084Z,17.25
2023-05-06T20:50:35.288Z,18.80
2023-05-06T20:53:02.386Z,20.80
2023-05-06T20:55:29.497Z,17.67
2023-05-06T20:57:56.645Z,16.48
2023-05-06T21:00:23.840Z,18.77
2023-05-06T21:02:51.105Z,18.07
2023-05-06T21:05:18.308Z,17.63
2023-05-06T21:07:45.700Z,18.38
2023-05-06T21:10:12.770Z,18.40
2023-05-06T21:12:39.895Z,17.05
2023-05-06T21:15:07.761Z,17.97
2023-05-06T21:17:35.057Z,16.80
2023-05-06T21:20:04.084Z,18.52
2023-05-06T21:22:32.361Z,16.83
2023-05-06T21:24:59.467Z,16.45
2023-05-06T21:27:26.505Z,15.53
2023-05-06T21:29:53.820Z,17.00
2023-05-06T21:32:21.139Z,20.30
2023-05-06T21:34:48.271Z,18.35
2023-05-06T21:37:15.420Z,23.92
2023-05-06T21:39:42.486Z,26.13
2023-05-06T21:42:09.554Z,22.23
2023-05-06T21:44:37.475Z,26.52
2023-05-06T21:47:04.567Z,22.50
2023-05-06T21:49:31.630Z,23.35
2023-05-06T21:51:58.697Z,23.37
2023-05-06T21:54:26.306Z,20.10
2023-05-06T21:56:54.212Z,25.70
2023-05-06T21:59:21.560Z,25.35
2023-05-06T22:01:48.764Z,20.63
2023-05-06T22:04:16.650Z,20.83
2023-05-06T22:06:44.091Z,23.83
2023-05-06T22:09:11.934Z,23.38
2023-05-06T22:11:39.007Z,21.40
2023-05-06T22:14:06.778Z,22.42
2023-05-06T22:16:37.530Z,23.70
2023-05-06T22:19:05.962Z,22.08
2023-05-06T22:21:34.970Z,24.77
2023-05-06T22:24:02.164Z,28.05
2023-05-06T22:26:29.293Z,20.90
2023-05-06T22:28:56.675Z,22.87
2023-05-06T22:31:24.782Z,23.60
2023-05-06T22:33:55.586Z,23.38
2023-05-06T22:36:23.604Z,19.52
2023-05-06T22:38:50.715Z,21.77
2023-05-06T22:41:18.313Z,22.80
2023-05-06T22:43:45.505Z,20.63
2023-05-06T22:46:12.697Z,25.05
2023-05-06T22:48:40.450Z,21.02
2023-05-06T22:51:07.836Z,20.45
2023-05-06T22:53:34.916Z,17.37
2023-05-06T22:56:01.980Z,17.70
2023-05-06T22:58:29.922Z,17.27
2023-05-06T23:00:57.040Z,21.35
2023-05-06T23:03:24.521Z,20.35
2023-05-06T23:05:51.591Z,18.53
2023-05-06T23:08:18.748Z,20.20
2023-05-06T23:10:46.371Z,17.52
2023-05-06T23:13:14.687Z,17.70
2023-05-06T23:15:41.776Z,18.00
2023-05-06T23:18:08.915Z,18.77
2023-05-06T23:20:36.141Z,19.85
2023-05-06T23:23:03.602Z,19.27
2023-05-06T23:25:30.720Z,18.52
2023-05-06T23:27:57.791Z,16.52
2023-05-06T23:30:26.302Z,17.37
2023-05-06T23:32:56.314Z,19.15
2023-05-06T23:35:23.389Z,17.42
2023-05-06T23:37:50.464Z,16.63
2023-05-06T23:40:17.582Z,13.70
2023-05-06T23:42:44.699Z,17.83
2023-05-06T23:45:12.667Z,17.67
2023-05-06T23:47:40.068Z,16.75
2023-05-06T23:50:07.485Z,17.40
2023-05-06T23:52:36.475Z,17.77
2023-05-06T23:55:05.206Z,16.77
2023-05-06T23:57:32.252Z,18.73
2023-05-06T23:59:59.432Z,16.88
